Dades meteomassalio
Diari Summary for Gener 10, 2018 Units:  Both    English   Metric
« Previous Day
Next Day »
Diari Semanal Mensual Anual Personalitzat
  Maxima: Minima: Mijana:
Temperatura: TemperatureC °F /  -17.8 °C -1.7 °F /  -18.7 °C 6.2 °F /  -14.3 °C
Rosada: DewpointC °F /  -17.8 °C -2.7 °F /  -19.3 °C 2.2 °F /  -16.6 °C
Humitat: Humidity % 60 % 76 %
Velocitat del vent: WindSpeedKMH mph /  0 km/h - 7.2 mph /  11.6 km/h
Racha vent: WindSpeedGustKMH mph /  0 km/h - -
Vent:- - WSW
Pressio: PressurehPa in /  0 hPa 1018.2 in /  34476.3 hPa -
Pluja: 0.5 in /  12.7 mm    
Historical Graphs
 
 
Tabular Data for Gener 10, 2018
Time Temperature Dew Point Pressure Wind Wind Speed Wind Gust Humidity Rainfall Rate (Hourly) solar Conditions
TemperatureC °F /  -17.8 °C DewpointC °F /  -17.8 °C PressurehPa in /  0 hPa Calm     Humidity % HourlyPrecipMM in /  0 mm SolarRadiationWatts/m^2 W/m2 Conditions
00:55 3.3 °F /  -15.9 °C 1.8 °F /  -16.8 °C 1021.6 in /  34591.4 hPa Calm     90 % 0.0 in /  0 mm 0.0 W/m2
01:09 3.3 °F /  -15.9 °C 2.0 °F /  -16.7 °C 1021.2 in /  34577.8 hPa Calm     91 % 0.3 in /  7.62 mm 0.0 W/m2 CLR
01:11 3.3 °F /  -15.9 °C 1.8 °F /  -16.8 °C 1021.2 in /  34577.8 hPa Calm     90 % 0.3 in /  7.62 mm 0.0 W/m2 CLR
01:15 3.3 °F /  -15.9 °C 2.0 °F /  -16.7 °C 1021.2 in /  34577.8 hPa Calm     91 % 0.3 in /  7.62 mm 0.0 W/m2 CLR
01:18 3.3 °F /  -15.9 °C 2.0 °F /  -16.7 °C 1021.2 in /  34577.8 hPa Calm     91 % 0.3 in /  7.62 mm 0.0 W/m2 CLR
01:36 3.3 °F /  -15.9 °C 2.0 °F /  -16.7 °C 1020.9 in /  34567.7 hPa Calm     91 % 0.3 in /  7.62 mm 0.0 W/m2 CLR
01:41 3.3 °F /  -15.9 °C 2.0 °F /  -16.7 °C 1020.9 in /  34567.7 hPa Calm     91 % 0.3 in /  7.62 mm 0.0 W/m2 CLR
01:47 2.8 °F /  -16.2 °C 1.4 °F /  -17 °C 1020.9 in /  34567.7 hPa Calm     91 % 0.3 in /  7.62 mm 0.0 W/m2 CLR
02:04 3.3 °F /  -15.9 °C 2.0 °F /  -16.7 °C 1020.9 in /  34567.7 hPa Calm     91 % 0.0 in /  0 mm 0.0 W/m2 CLR
02:07 3.3 °F /  -15.9 °C 2.0 °F /  -16.7 °C 1020.5 in /  34554.1 hPa Calm     91 % 0.0 in /  0 mm 0.0 W/m2 CLR
02:13 3.3 °F /  -15.9 °C 2.2 °F /  -16.6 °C 1020.5 in /  34554.1 hPa Calm     92 % 0.0 in /  0 mm 0.0 W/m2 CLR
02:14 3.3 °F /  -15.9 °C 2.2 °F /  -16.6 °C 1020.5 in /  34554.1 hPa Calm     92 % 0.0 in /  0 mm 0.0 W/m2 CLR
02:18 2.8 °F /  -16.2 °C 1.4 °F /  -17 °C 1020.5 in /  34554.1 hPa Calm     91 % 0.0 in /  0 mm 0.0 W/m2 CLR
02:33 2.8 °F /  -16.2 °C 1.6 °F /  -16.9 °C 1020.5 in /  34554.1 hPa Calm     92 % 0.0 in /  0 mm 0.0 W/m2 CLR
02:34 2.8 °F /  -16.2 °C 1.6 °F /  -16.9 °C 1020.5 in /  34554.1 hPa Calm     92 % 0.0 in /  0 mm 0.0 W/m2 CLR
02:38 2.2 °F /  -16.6 °C 1.1 °F /  -17.2 °C 1020.5 in /  34554.1 hPa Calm     92 % 0.0 in /  0 mm 0.0 W/m2 CLR
02:40 2.2 °F /  -16.6 °C 1.1 °F /  -17.2 °C 1020.5 in /  34554.1 hPa Calm     92 % 0.0 in /  0 mm 0.0 W/m2 CLR
02:43 2.2 °F /  -16.6 °C 1.1 °F /  -17.2 °C 1020.2 in /  34544 hPa Calm     92 % 0.0 in /  0 mm 0.0 W/m2 CLR
02:48 2.2 °F /  -16.6 °C 1.1 °F /  -17.2 °C 1020.2 in /  34544 hPa Calm     92 % 0.0 in /  0 mm 0.0 W/m2 CLR
02:50 2.2 °F /  -16.6 °C 1.1 °F /  -17.2 °C 1020.2 in /  34544 hPa Calm     92 % 0.0 in /  0 mm 0.0 W/m2 CLR
02:56 1.7 °F /  -16.8 °C 0.5 °F /  -17.5 °C 1020.2 in /  34544 hPa Calm     92 % 0.0 in /  0 mm 0.0 W/m2 CLR
03:08 1.7 °F /  -16.8 °C 0.5 °F /  -17.5 °C 1020.2 in /  34544 hPa Calm     92 % 0.0 in /  0 mm 0.0 W/m2 CLR
03:17 1.1 °F /  -17.2 °C -0.1 °F /  -17.8 °C 1020.2 in /  34544 hPa Calm     92 % 0.0 in /  0 mm 0.0 W/m2 CLR
03:19 1.1 °F /  -17.2 °C -0.1 °F /  -17.8 °C 1020.2 in /  34544 hPa Calm     92 % 0.0 in /  0 mm 0.0 W/m2 CLR
03:39 1.7 °F /  -16.8 °C 0.5 °F /  -17.5 °C 1020.2 in /  34544 hPa Calm     92 % 0.0 in /  0 mm 0.0 W/m2 CLR
03:44 1.7 °F /  -16.8 °C 0.5 °F /  -17.5 °C 1020.2 in /  34544 hPa Calm     92 % 0.0 in /  0 mm 0.0 W/m2 CLR
04:08 1.1 °F /  -17.2 °C -0.1 °F /  -17.8 °C 1019.9 in /  34533.8 hPa Calm     92 % 0.0 in /  0 mm 0.0 W/m2 CLR
04:21 1.1 °F /  -17.2 °C -0.1 °F /  -17.8 °C 1019.9 in /  34533.8 hPa Calm     92 % 0.0 in /  0 mm 0.0 W/m2 CLR
05:04 0.6 °F /  -17.4 °C -0.4 °F /  -18 °C 1019.9 in /  34533.8 hPa Calm     93 % 0.0 in /  0 mm 0.0 W/m2 CLR
05:15 0.6 °F /  -17.4 °C -0.6 °F /  -18.1 °C 1019.9 in /  34533.8 hPa Calm     92 % 0.0 in /  0 mm 0.0 W/m2 CLR
05:20 0.6 °F /  -17.4 °C -0.6 °F /  -18.1 °C 1019.9 in /  34533.8 hPa Calm     92 % 0.0 in /  0 mm 0.0 W/m2 CLR
05:27 0.6 °F /  -17.4 °C -0.4 °F /  -18 °C 1019.5 in /  34520.3 hPa Calm     93 % 0.0 in /  0 mm 0.0 W/m2 CLR
05:58 0.0 °F /  -17.8 °C -1.0 °F /  -18.3 °C 1019.5 in /  34520.3 hPa Calm     93 % 0.0 in /  0 mm 0.0 W/m2 CLR
06:08 0.0 °F /  -17.8 °C -1.0 °F /  -18.3 °C 1019.5 in /  34520.3 hPa Calm     93 % 0.0 in /  0 mm 0.0 W/m2 CLR
06:25 0.0 °F /  -17.8 °C -1.0 °F /  -18.3 °C 1019.9 in /  34533.8 hPa Calm     93 % 0.0 in /  0 mm 0.0 W/m2 CLR
07:41 -1.1 °F /  -18.4 °C -2.1 °F /  -18.9 °C 1020.2 in /  34544 hPa Calm     93 % 0.0 in /  0 mm 0.0 W/m2 CLR
08:33 -1.7 °F /  -18.7 °C -2.7 °F /  -19.3 °C 1020.9 in /  34567.7 hPa Calm     93 % 0.0 in /  0 mm 5.0 W/m2 OVC
09:52 1.1 °F /  -17.2 °C 0.1 °F /  -17.7 °C 1020.9 in /  34567.7 hPa Calm     93 % 0.0 in /  0 mm 88.0 W/m2 FEW
09:58 1.1 °F /  -17.2 °C 0.1 °F /  -17.7 °C 1020.9 in /  34567.7 hPa Calm     93 % 0.0 in /  0 mm 90.0 W/m2 FEW
10:39 2.8 °F /  -16.2 °C 1.9 °F /  -16.7 °C 1020.5 in /  34554.1 hPa Calm     94 % 0.0 in /  0 mm 274.0 W/m2 CLR
10:47 2.8 °F /  -16.2 °C 1.9 °F /  -16.7 °C 1020.9 in /  34567.7 hPa Calm     94 % 0.0 in /  0 mm 288.0 W/m2 CLR
11:51 9.4 °F /  -12.6 °C 5.2 °F /  -14.9 °C 1020.2 in /  34544 hPa NNW 18.5 mph /  29.8 km/h 18.5 mph /  29.8 km/h 75 % 0.0 in /  0 mm 403.0 W/m2 CLR
11:57 10.0 °F /  -12.2 °C 5.4 °F /  -14.8 °C 1020.2 in /  34544 hPa NNW 25.7 mph /  41.4 km/h 25.7 mph /  41.4 km/h 73 % 0.0 in /  0 mm 410.0 W/m2 CLR
12:11 10.6 °F /  -11.9 °C 5.3 °F /  -14.8 °C 1019.9 in /  34533.8 hPa NW 24.1 mph /  38.8 km/h 24.1 mph /  38.8 km/h 70 % 0.0 in /  0 mm 424.0 W/m2 CLR
12:48 11.7 °F /  -11.3 °C 5.5 °F /  -14.7 °C 1019.5 in /  34520.3 hPa NW 16.7 mph /  26.9 km/h 16.7 mph /  26.9 km/h 66 % 0.0 in /  0 mm 446.0 W/m2 CLR
13:40 12.8 °F /  -10.7 °C 6.8 °F /  -14 °C 1018.8 in /  34496.6 hPa North 19.3 mph /  31.1 km/h 19.3 mph /  31.1 km/h 67 % 0.0 in /  0 mm 443.0 W/m2 CLR
13:51 12.8 °F /  -10.7 °C 6.6 °F /  -14.1 °C 1018.8 in /  34496.6 hPa NW 18.5 mph /  29.8 km/h 18.5 mph /  29.8 km/h 66 % 0.0 in /  0 mm 436.0 W/m2 CLR
13:59 12.8 °F /  -10.7 °C 7.0 °F /  -13.9 °C 1018.8 in /  34496.6 hPa North 24.1 mph /  38.8 km/h 24.1 mph /  38.8 km/h 68 % 0.0 in /  0 mm 432.0 W/m2 CLR
14:27 12.2 °F /  -11 °C 6.5 °F /  -14.2 °C 1018.5 in /  34486.4 hPa NNE 20.9 mph /  33.6 km/h 20.9 mph /  33.6 km/h 68 % 0.0 in /  0 mm 121.0 W/m2 CLR
14:41 11.7 °F /  -11.3 °C 6.4 °F /  -14.2 °C 1018.5 in /  34486.4 hPa North 16.7 mph /  26.9 km/h 16.7 mph /  26.9 km/h 70 % 0.0 in /  0 mm 461.0 W/m2 CLR
14:51 12.2 °F /  -11 °C 6.9 °F /  -13.9 °C 1018.5 in /  34486.4 hPa NNE 16.7 mph /  26.9 km/h 16.7 mph /  26.9 km/h 70 % 0.0 in /  0 mm 406.0 W/m2 CLR
14:56 12.2 °F /  -11 °C 6.7 °F /  -14.1 °C 1018.5 in /  34486.4 hPa NNE 20.4 mph /  32.8 km/h 20.4 mph /  32.8 km/h 69 % 0.0 in /  0 mm 70.0 W/m2 CLR
15:21 10.6 °F /  -11.9 °C 5.5 °F /  -14.7 °C 1019.2 in /  34510.1 hPa NNE 11.1 mph /  17.9 km/h 11.1 mph /  17.9 km/h 71 % 0.0 in /  0 mm 137.0 W/m2 CLR
15:22 10.6 °F /  -11.9 °C 5.5 °F /  -14.7 °C 1019.2 in /  34510.1 hPa NNE 14.8 mph /  23.8 km/h 14.8 mph /  23.8 km/h 71 % 0.0 in /  0 mm 128.0 W/m2 CLR
15:23 10.6 °F /  -11.9 °C 5.5 °F /  -14.7 °C 1019.2 in /  34510.1 hPa NNE 16.1 mph /  25.9 km/h 16.1 mph /  25.9 km/h 71 % 0.0 in /  0 mm 128.0 W/m2 CLR
15:32 10.6 °F /  -11.9 °C 5.7 °F /  -14.6 °C 1019.2 in /  34510.1 hPa North 16.7 mph /  26.9 km/h 16.7 mph /  26.9 km/h 72 % 0.0 in /  0 mm 127.0 W/m2 CLR
15:37 10.6 °F /  -11.9 °C 5.7 °F /  -14.6 °C 1018.8 in /  34496.6 hPa NNE 12.9 mph /  20.8 km/h 12.9 mph /  20.8 km/h 72 % 0.0 in /  0 mm 144.0 W/m2 CLR
15:43 10.6 °F /  -11.9 °C 5.7 °F /  -14.6 °C 1018.8 in /  34496.6 hPa NNW 1.9 mph /  3.1 km/h 1.9 mph /  3.1 km/h 72 % 0.0 in /  0 mm 149.0 W/m2 CLR
15:51 10.6 °F /  -11.9 °C 5.7 °F /  -14.6 °C 1019.2 in /  34510.1 hPa North 14.8 mph /  23.8 km/h 14.8 mph /  23.8 km/h 72 % 0.0 in /  0 mm 139.0 W/m2 CLR
15:58 11.1 °F /  -11.6 °C 6.3 °F /  -14.3 °C 1019.2 in /  34510.1 hPa NNW 13.0 mph /  20.9 km/h 13.0 mph /  20.9 km/h 72 % 0.0 in /  0 mm 79.0 W/m2 CLR
16:08 10.6 °F /  -11.9 °C 5.5 °F /  -14.7 °C 1019.2 in /  34510.1 hPa North 14.8 mph /  23.8 km/h 14.8 mph /  23.8 km/h 71 % 0.0 in /  0 mm 109.0 W/m2 CLR
16:13 10.6 °F /  -11.9 °C 5.5 °F /  -14.7 °C 1019.2 in /  34510.1 hPa NNE 13.0 mph /  20.9 km/h 13.0 mph /  20.9 km/h 71 % 0.0 in /  0 mm 155.0 W/m2 CLR
16:25 10.6 °F /  -11.9 °C 5.5 °F /  -14.7 °C 1019.2 in /  34510.1 hPa Calm     71 % 0.0 in /  0 mm 153.0 W/m2 CLR
16:33 10.6 °F /  -11.9 °C 5.3 °F /  -14.8 °C 1019.2 in /  34510.1 hPa North 3.2 mph /  5.1 km/h 3.2 mph /  5.1 km/h 70 % 0.0 in /  0 mm 97.0 W/m2 CLR
16:40 10.6 °F /  -11.9 °C 5.1 °F /  -14.9 °C 1019.2 in /  34510.1 hPa NNW 1.9 mph /  3.1 km/h 1.9 mph /  3.1 km/h 69 % 0.0 in /  0 mm 72.0 W/m2 CLR
16:46 10.6 °F /  -11.9 °C 5.3 °F /  -14.8 °C 1018.8 in /  34496.6 hPa Calm     70 % 0.0 in /  0 mm 67.0 W/m2 FEW
16:52 10.0 °F /  -12.2 °C 4.3 °F /  -15.4 °C 1018.8 in /  34496.6 hPa NW 11.3 mph /  18.2 km/h 11.3 mph /  18.2 km/h 68 % 0.0 in /  0 mm 65.0 W/m2 SCT
16:57 10.0 °F /  -12.2 °C 3.9 °F /  -15.6 °C 1018.8 in /  34496.6 hPa NW 14.8 mph /  23.8 km/h 14.8 mph /  23.8 km/h 66 % 0.0 in /  0 mm 67.0 W/m2 FEW
17:03 10.6 °F /  -11.9 °C 3.3 °F /  -15.9 °C 1018.8 in /  34496.6 hPa WNW 20.4 mph /  32.8 km/h 20.4 mph /  32.8 km/h 61 % 0.0 in /  0 mm 58.0 W/m2 SCT
17:13 11.1 °F /  -11.6 °C 3.6 °F /  -15.8 °C 1018.8 in /  34496.6 hPa NW 24.1 mph /  38.8 km/h 24.1 mph /  38.8 km/h 60 % 0.0 in /  0 mm 26.0 W/m2 BKN
17:18 10.6 °F /  -11.9 °C 3.1 °F /  -16.1 °C 1018.8 in /  34496.6 hPa NW 22.2 mph /  35.7 km/h 22.2 mph /  35.7 km/h 60 % 0.0 in /  0 mm 21.0 W/m2 BKN
17:31 10.6 °F /  -11.9 °C 3.3 °F /  -15.9 °C 1018.8 in /  34496.6 hPa WNW 20.4 mph /  32.8 km/h 20.4 mph /  32.8 km/h 61 % 0.0 in /  0 mm 14.0 W/m2 BKN
17:36 10.0 °F /  -12.2 °C 3.1 °F /  -16.1 °C 1018.5 in /  34486.4 hPa WNW 17.7 mph /  28.5 km/h 17.7 mph /  28.5 km/h 62 % 0.0 in /  0 mm 9.0 W/m2 BKN
17:43 10.0 °F /  -12.2 °C 2.8 °F /  -16.2 °C 1018.5 in /  34486.4 hPa NW 18.5 mph /  29.8 km/h 18.5 mph /  29.8 km/h 61 % 0.0 in /  0 mm 5.0 W/m2 OVC
17:49 10.0 °F /  -12.2 °C 3.1 °F /  -16.1 °C 1018.5 in /  34486.4 hPa WNW 14.8 mph /  23.8 km/h 14.8 mph /  23.8 km/h 62 % 0.0 in /  0 mm 0.0 W/m2 OVC
17:56 9.4 °F /  -12.6 °C 2.5 °F /  -16.4 °C 1018.5 in /  34486.4 hPa NW 11.1 mph /  17.9 km/h 11.1 mph /  17.9 km/h 62 % 0.0 in /  0 mm 0.0 W/m2 OVC
18:01 9.4 °F /  -12.6 °C 2.7 °F /  -16.3 °C 1018.5 in /  34486.4 hPa NW 7.4 mph /  11.9 km/h 7.4 mph /  11.9 km/h 63 % 0.0 in /  0 mm 0.0 W/m2 CLR
18:14 8.3 °F /  -13.2 °C 1.9 °F /  -16.7 °C 1018.5 in /  34486.4 hPa WNW 14.8 mph /  23.8 km/h 14.8 mph /  23.8 km/h 64 % 0.0 in /  0 mm 0.0 W/m2 CLR
18:24 7.8 °F /  -13.4 °C 1.4 °F /  -17 °C 1018.5 in /  34486.4 hPa Calm     64 % 0.0 in /  0 mm 0.0 W/m2 CLR
18:33 7.2 °F /  -13.8 °C 1.1 °F /  -17.2 °C 1018.2 in /  34476.3 hPa Calm     65 % 0.0 in /  0 mm 0.0 W/m2 CLR
18:42 6.7 °F /  -14.1 °C 0.6 °F /  -17.4 °C 1018.2 in /  34476.3 hPa NW 1.9 mph /  3.1 km/h   65 % 0.0 in /  0 mm 0.0 W/m2 CLR
18:52 6.7 °F /  -14.1 °C 0.6 °F /  -17.4 °C 1018.2 in /  34476.3 hPa Calm     65 % 0.0 in /  0 mm 0.0 W/m2 CLR
18:58 6.7 °F /  -14.1 °C 0.6 °F /  -17.4 °C 1018.2 in /  34476.3 hPa NW 3.7 mph /  6 km/h 3.7 mph /  6 km/h 65 % 0.0 in /  0 mm 0.0 W/m2 CLR
19:04 6.1 °F /  -14.4 °C 0.2 °F /  -17.7 °C 1018.2 in /  34476.3 hPa Calm     66 % 0.0 in /  0 mm 0.0 W/m2 CLR
19:11 6.1 °F /  -14.4 °C 0.2 °F /  -17.7 °C 1018.2 in /  34476.3 hPa Calm     66 % 0.0 in /  0 mm 0.0 W/m2 CLR
19:17 6.1 °F /  -14.4 °C 0.4 °F /  -17.6 °C 1018.2 in /  34476.3 hPa Calm     67 % 0.0 in /  0 mm 0.0 W/m2 CLR
19:23 6.7 °F /  -14.1 °C 0.9 °F /  -17.3 °C 1018.2 in /  34476.3 hPa WNW 5.6 mph /  9 km/h 5.6 mph /  9 km/h 67 % 0.0 in /  0 mm 0.0 W/m2 CLR
19:34 6.7 °F /  -14.1 °C 0.9 °F /  -17.3 °C 1018.2 in /  34476.3 hPa Calm     67 % 0.0 in /  0 mm 0.0 W/m2 CLR
19:39 6.7 °F /  -14.1 °C 0.9 °F /  -17.3 °C 1018.2 in /  34476.3 hPa Calm     67 % 0.0 in /  0 mm 0.0 W/m2 CLR
19:44 7.2 °F /  -13.8 °C 1.7 °F /  -16.8 °C 1018.2 in /  34476.3 hPa Calm     68 % 0.0 in /  0 mm 0.0 W/m2 CLR
19:50 7.2 °F /  -13.8 °C 1.9 °F /  -16.7 °C 1018.2 in /  34476.3 hPa Calm     69 % 0.0 in /  0 mm 0.0 W/m2 CLR
19:56 7.2 °F /  -13.8 °C 2.1 °F /  -16.6 °C 1018.2 in /  34476.3 hPa Calm     70 % 0.0 in /  0 mm 0.0 W/m2 CLR
20:04 7.2 °F /  -13.8 °C 2.1 °F /  -16.6 °C 1018.5 in /  34486.4 hPa Calm     70 % 0.0 in /  0 mm 0.0 W/m2 CLR
20:10 7.2 °F /  -13.8 °C 2.3 °F /  -16.5 °C 1018.5 in /  34486.4 hPa Calm     71 % 0.0 in /  0 mm 0.0 W/m2 CLR
20:15 6.7 °F /  -14.1 °C 2.0 °F /  -16.7 °C 1018.5 in /  34486.4 hPa Calm     72 % 0.0 in /  0 mm 0.0 W/m2 CLR
20:22 6.7 °F /  -14.1 °C 2.0 °F /  -16.7 °C 1018.5 in /  34486.4 hPa Calm     72 % 0.0 in /  0 mm 0.0 W/m2 CLR
20:49 5.6 °F /  -14.7 °C 0.7 °F /  -17.4 °C 1018.5 in /  34486.4 hPa Calm     71 % 0.0 in /  0 mm 0.0 W/m2 CLR
21:01 5.6 °F /  -14.7 °C 0.7 °F /  -17.4 °C 1018.2 in /  34476.3 hPa WNW 5.6 mph /  9 km/h 5.6 mph /  9 km/h 71 % 0.0 in /  0 mm 0.0 W/m2 CLR
21:13 5.0 °F /  -15 °C 0.2 °F /  -17.7 °C 1018.2 in /  34476.3 hPa WNW 14.8 mph /  23.8 km/h 14.8 mph /  23.8 km/h 71 % 0.0 in /  0 mm 0.0 W/m2 CLR
21:27 4.4 °F /  -15.3 °C -0.6 °F /  -18.1 °C 1018.2 in /  34476.3 hPa WNW 4.8 mph /  7.7 km/h 4.8 mph /  7.7 km/h 70 % 0.0 in /  0 mm 0.0 W/m2 CLR
22:03 3.3 °F /  -15.9 °C -1.8 °F /  -18.8 °C 1018.8 in /  34496.6 hPa WNW 16.7 mph /  26.9 km/h 16.7 mph /  26.9 km/h 69 % 0.0 in /  0 mm 0.0 W/m2 CLR
22:11 3.3 °F /  -15.9 °C -2.0 °F /  -18.9 °C 1018.8 in /  34496.6 hPa NW 18.5 mph /  29.8 km/h 18.5 mph /  29.8 km/h 68 % 0.0 in /  0 mm 0.0 W/m2 CLR
22:16 3.3 °F /  -15.9 °C -2.2 °F /  -19 °C 1018.8 in /  34496.6 hPa NW 16.7 mph /  26.9 km/h 16.7 mph /  26.9 km/h 67 % 0.0 in /  0 mm 0.0 W/m2 CLR
22:30 8.3 °F /  -13.2 °C 2.1 °F /  -16.6 °C 1018.8 in /  34496.6 hPa NW 20.4 mph /  32.8 km/h 20.4 mph /  32.8 km/h 65 % 0.0 in /  0 mm 0.0 W/m2 CLR
22:52 8.9 °F /  -12.8 °C 2.7 °F /  -16.3 °C 1018.5 in /  34486.4 hPa NW 20.4 mph /  32.8 km/h 20.4 mph /  32.8 km/h 65 % 0.0 in /  0 mm 0.0 W/m2 CLR
23:05 8.3 °F /  -13.2 °C 2.1 °F /  -16.6 °C 1018.8 in /  34496.6 hPa NNW 30.6 mph /  49.2 km/h 30.6 mph /  49.2 km/h 65 % 0.0 in /  0 mm 0.0 W/m2 CLR
23:45 8.3 °F /  -13.2 °C 2.1 °F /  -16.6 °C 1019.2 in /  34510.1 hPa NW 31.5 mph /  50.7 km/h 31.5 mph /  50.7 km/h 65 % 0.0 in /  0 mm 0.0 W/m2 CLR
23:53 8.9 °F /  -12.8 °C 2.7 °F /  -16.3 °C 1019.2 in /  34510.1 hPa NW 42.6 mph /  68.6 km/h 42.6 mph /  68.6 km/h 65 % 0.0 in /  0 mm 0.0 W/m2 CLR
Lo Temps de Massalio
Compliments of Weather Underground - 512 kb